Amlwch, United Kingdom

12:52 PM GMT on February 10, 2016 (GMT +0000)
Nebo | | Change Station
CLOSE
Current Station
Personal Weather Station
Location: Amlwch, WALES
Elevation: 507 ft
Nearby Weather Stations

Elev 507 ft 53.39 °N, 4.30 °W | Updated 59 seconds ago

Scattered Clouds
Scattered Clouds
43.2 °F
Feels Like 37 °F
N
12.0
Wind Variable Wind from NW
Gusts 16.0 mph

Today
High -- | Low -- °F
--% Chance of Precip.
Yesterday
High -- | Low -- °F
Precip. -- in
Pressure 29.47 in
Visibility 6.2 miles
Clouds Scattered Clouds 1800 ft
Windchill 37 °F
Dew Point 34 °F
Humidity 69%
Rainfall 0.05 in
Snow Depth Not available.
7:47 AM 5:17 PM
Waxing Crescent, 5% visible
METAR EGNS 101220Z 29011KT 260V320 9999 SCT018 07/04 Q0998
Pressure 29.47 in
Visibility 6.2 miles
Clouds Scattered Clouds 1800 ft
Windchill 37 °F
Dew Point 34 °F
Humidity 69%
Rainfall 0.05 in
Snow Depth Not available.
7:47 AM 5:17 PM
Waxing Crescent, 5% visible
METAR EGNS 101220Z 29011KT 260V320 9999 SCT018 07/04 Q0998

10-Day Weather Forecast

Almanac

Astronomy

Feb. 10, 2016 Rise Set
Actual Time
Civil Twilight
Nautical Twilight
Astronomical Twilight
Moon
Length of Visible Light
Length of Day
Tomorrow will be .
, % of the Moon is Illuminated

Today's Extremes

Country Highs Country Lows

Community

WunderPhotos

Upload Photos

1,891,837 photos uploaded!

WunderBlog® & News

Nearby

Air Quality

  Air Quality AQ Index Pollutant
Not available.

Snow Depth

Station Depth Elevation

Earthquake Activity

City Distance Mag. Time & Date
Minimum magnitude displayed is 2.5.

Coastal Water Temperatures

Place Temperature

Stations

Nearby Weather Stations

Station Location Temp. Windchill Dew Point Humidity Wind Precip. Elev Updated Type